sensor_id;sensor_type;location;lat;lon;timestamp;P1;durP1;ratioP1;P2;durP2;ratioP2
42132;SDS011;70517;48.192;16.278;2023-07-20T00:02:21;2.00;;;1.42;;
42132;SDS011;70517;48.192;16.278;2023-07-20T00:08:24;1.92;;;1.40;;
42132;SDS011;70517;48.192;16.278;2023-07-20T00:14:25;1.73;;;1.38;;
42132;SDS011;70517;48.192;16.278;2023-07-20T00:20:25;4.30;;;2.08;;
42132;SDS011;70517;48.192;16.278;2023-07-20T00:26:26;2.22;;;1.65;;
42132;SDS011;70517;48.192;16.278;2023-07-20T00:32:26;2.20;;;1.80;;
42132;SDS011;70517;48.192;16.278;2023-07-20T00:35:26;2.57;;;1.67;;
42132;SDS011;70517;48.192;16.278;2023-07-20T00:41:27;2.47;;;1.65;;
42132;SDS011;70517;48.192;16.278;2023-07-20T00:44:29;2.92;;;1.98;;
42132;SDS011;70517;48.192;16.278;2023-07-20T00:50:29;2.42;;;1.90;;
42132;SDS011;70517;48.192;16.278;2023-07-20T00:53:30;2.78;;;2.03;;
42132;SDS011;70517;48.192;16.278;2023-07-20T00:59:31;3.53;;;1.73;;
42132;SDS011;70517;48.192;16.278;2023-07-20T01:05:35;2.88;;;1.80;;
42132;SDS011;70517;48.192;16.278;2023-07-20T01:11:57;2.03;;;1.70;;
42132;SDS011;70517;48.192;16.278;2023-07-20T01:14:59;2.25;;;1.95;;
42132;SDS011;70517;48.192;16.278;2023-07-20T01:18:00;2.00;;;1.80;;
42132;SDS011;70517;48.192;16.278;2023-07-20T01:21:06;2.90;;;2.20;;
42132;SDS011;70517;48.192;16.278;2023-07-20T01:33:27;4.53;;;2.07;;
42132;SDS011;70517;48.192;16.278;2023-07-20T01:36:29;2.20;;;2.00;;
42132;SDS011;70517;48.192;16.278;2023-07-20T01:39:30;3.50;;;2.53;;
42132;SDS011;70517;48.192;16.278;2023-07-20T01:42:31;3.45;;;2.17;;
42132;SDS011;70517;48.192;16.278;2023-07-20T01:45:31;2.60;;;2.23;;
42132;SDS011;70517;48.192;16.278;2023-07-20T01:48:32;3.10;;;1.93;;
42132;SDS011;70517;48.192;16.278;2023-07-20T01:51:32;1.98;;;1.77;;
42132;SDS011;70517;48.192;16.278;2023-07-20T01:54:32;3.10;;;1.80;;
42132;SDS011;70517;48.192;16.278;2023-07-20T01:57:32;2.53;;;1.88;;
42132;SDS011;70517;48.192;16.278;2023-07-20T02:00:33;2.10;;;1.87;;
42132;SDS011;70517;48.192;16.278;2023-07-20T02:03:33;2.10;;;1.50;;
42132;SDS011;70517;48.192;16.278;2023-07-20T02:06:33;1.60;;;1.50;;
42132;SDS011;70517;48.192;16.278;2023-07-20T02:09:33;2.07;;;1.63;;
42132;SDS011;70517;48.192;16.278;2023-07-20T02:12:34;2.63;;;1.70;;
42132;SDS011;70517;48.192;16.278;2023-07-20T02:15:34;1.95;;;1.77;;
42132;SDS011;70517;48.192;16.278;2023-07-20T02:18:34;3.28;;;1.85;;
42132;SDS011;70517;48.192;16.278;2023-07-20T02:21:36;2.72;;;2.00;;
42132;SDS011;70517;48.192;16.278;2023-07-20T02:24:37;4.10;;;2.25;;
42132;SDS011;70517;48.192;16.278;2023-07-20T02:27:37;2.97;;;1.70;;
42132;SDS011;70517;48.192;16.278;2023-07-20T02:30:38;2.30;;;1.77;;
42132;SDS011;70517;48.192;16.278;2023-07-20T02:33:39;3.35;;;1.80;;
42132;SDS011;70517;48.192;16.278;2023-07-20T02:36:39;3.33;;;1.80;;
42132;SDS011;70517;48.192;16.278;2023-07-20T02:39:39;1.63;;;1.53;;
42132;SDS011;70517;48.192;16.278;2023-07-20T02:42:40;2.25;;;2.00;;
42132;SDS011;70517;48.192;16.278;2023-07-20T02:45:40;2.20;;;1.67;;
42132;SDS011;70517;48.192;16.278;2023-07-20T02:48:42;2.50;;;1.77;;
42132;SDS011;70517;48.192;16.278;2023-07-20T02:51:42;2.27;;;2.07;;
42132;SDS011;70517;48.192;16.278;2023-07-20T02:54:43;2.37;;;2.10;;
42132;SDS011;70517;48.192;16.278;2023-07-20T02:57:43;2.78;;;1.88;;
42132;SDS011;70517;48.192;16.278;2023-07-20T03:00:44;2.60;;;2.05;;
42132;SDS011;70517;48.192;16.278;2023-07-20T03:03:44;3.88;;;2.00;;
42132;SDS011;70517;48.192;16.278;2023-07-20T03:06:46;2.53;;;2.00;;
42132;SDS011;70517;48.192;16.278;2023-07-20T03:09:46;2.83;;;2.20;;
42132;SDS011;70517;48.192;16.278;2023-07-20T03:12:47;3.17;;;1.70;;
42132;SDS011;70517;48.192;16.278;2023-07-20T03:15:47;2.95;;;1.98;;
42132;SDS011;70517;48.192;16.278;2023-07-20T03:18:47;4.43;;;1.90;;
42132;SDS011;70517;48.192;16.278;2023-07-20T03:21:47;3.78;;;2.13;;
42132;SDS011;70517;48.192;16.278;2023-07-20T03:24:48;2.55;;;2.20;;
42132;SDS011;70517;48.192;16.278;2023-07-20T03:27:48;2.10;;;1.67;;
42132;SDS011;70517;48.192;16.278;2023-07-20T03:30:55;2.35;;;1.92;;
42132;SDS011;70517;48.192;16.278;2023-07-20T03:33:55;2.60;;;2.10;;
42132;SDS011;70517;48.192;16.278;2023-07-20T03:36:56;3.07;;;2.20;;
42132;SDS011;70517;48.192;16.278;2023-07-20T03:39:56;2.07;;;1.77;;
42132;SDS011;70517;48.192;16.278;2023-07-20T03:42:56;2.77;;;1.80;;
42132;SDS011;70517;48.192;16.278;2023-07-20T03:45:56;2.50;;;1.73;;
42132;SDS011;70517;48.192;16.278;2023-07-20T03:48:57;2.45;;;1.48;;
42132;SDS011;70517;48.192;16.278;2023-07-20T03:51:57;2.63;;;1.80;;
42132;SDS011;70517;48.192;16.278;2023-07-20T03:54:57;2.63;;;2.43;;
42132;SDS011;70517;48.192;16.278;2023-07-20T03:57:57;3.83;;;2.93;;
42132;SDS011;70517;48.192;16.278;2023-07-20T04:00:58;3.20;;;2.42;;
42132;SDS011;70517;48.192;16.278;2023-07-20T04:03:58;3.75;;;2.38;;
42132;SDS011;70517;48.192;16.278;2023-07-20T04:06:58;3.73;;;2.53;;
42132;SDS011;70517;48.192;16.278;2023-07-20T04:09:59;3.17;;;2.23;;
42132;SDS011;70517;48.192;16.278;2023-07-20T04:13:00;3.63;;;2.67;;
42132;SDS011;70517;48.192;16.278;2023-07-20T04:16:00;3.75;;;3.00;;
42132;SDS011;70517;48.192;16.278;2023-07-20T04:19:00;3.03;;;2.40;;
42132;SDS011;70517;48.192;16.278;2023-07-20T04:22:01;3.13;;;2.37;;
42132;SDS011;70517;48.192;16.278;2023-07-20T04:25:02;4.80;;;2.90;;
42132;SDS011;70517;48.192;16.278;2023-07-20T04:28:03;3.58;;;2.50;;
42132;SDS011;70517;48.192;16.278;2023-07-20T04:31:09;2.90;;;2.00;;
42132;SDS011;70517;48.192;16.278;2023-07-20T04:34:11;3.22;;;2.28;;
42132;SDS011;70517;48.192;16.278;2023-07-20T04:37:12;4.93;;;2.45;;
42132;SDS011;70517;48.192;16.278;2023-07-20T04:40:15;5.28;;;2.38;;
42132;SDS011;70517;48.192;16.278;2023-07-20T04:43:16;3.42;;;2.50;;
42132;SDS011;70517;48.192;16.278;2023-07-20T04:46:16;2.50;;;2.03;;
42132;SDS011;70517;48.192;16.278;2023-07-20T04:49:18;4.20;;;2.28;;
42132;SDS011;70517;48.192;16.278;2023-07-20T04:52:18;3.27;;;2.33;;
42132;SDS011;70517;48.192;16.278;2023-07-20T04:55:18;2.30;;;2.10;;
42132;SDS011;70517;48.192;16.278;2023-07-20T04:58:19;2.30;;;2.00;;
42132;SDS011;70517;48.192;16.278;2023-07-20T05:01:19;2.58;;;2.00;;
42132;SDS011;70517;48.192;16.278;2023-07-20T05:04:20;2.38;;;1.88;;
42132;SDS011;70517;48.192;16.278;2023-07-20T05:07:20;3.20;;;2.20;;
42132;SDS011;70517;48.192;16.278;2023-07-20T05:10:20;2.20;;;2.00;;
42132;SDS011;70517;48.192;16.278;2023-07-20T05:13:20;3.00;;;2.50;;
42132;SDS011;70517;48.192;16.278;2023-07-20T05:16:21;2.90;;;2.37;;
42132;SDS011;70517;48.192;16.278;2023-07-20T05:19:21;3.97;;;1.90;;
42132;SDS011;70517;48.192;16.278;2023-07-20T05:22:21;3.45;;;2.53;;
42132;SDS011;70517;48.192;16.278;2023-07-20T05:25:22;2.75;;;2.22;;
42132;SDS011;70517;48.192;16.278;2023-07-20T05:28:23;3.13;;;2.10;;
42132;SDS011;70517;48.192;16.278;2023-07-20T05:31:23;3.38;;;2.10;;
42132;SDS011;70517;48.192;16.278;2023-07-20T05:34:24;5.53;;;2.10;;
42132;SDS011;70517;48.192;16.278;2023-07-20T05:37:24;3.30;;;2.03;;
42132;SDS011;70517;48.192;16.278;2023-07-20T05:40:25;2.10;;;1.90;;
42132;SDS011;70517;48.192;16.278;2023-07-20T05:43:26;2.63;;;2.13;;
42132;SDS011;70517;48.192;16.278;2023-07-20T05:46:26;5.93;;;2.47;;
42132;SDS011;70517;48.192;16.278;2023-07-20T05:49:26;3.53;;;2.47;;
42132;SDS011;70517;48.192;16.278;2023-07-20T05:52:27;3.38;;;2.13;;
42132;SDS011;70517;48.192;16.278;2023-07-20T05:55:27;2.40;;;2.03;;
42132;SDS011;70517;48.192;16.278;2023-07-20T05:58:27;3.10;;;2.10;;
42132;SDS011;70517;48.192;16.278;2023-07-20T06:01:27;1.98;;;1.73;;
42132;SDS011;70517;48.192;16.278;2023-07-20T06:04:28;4.20;;;1.90;;
42132;SDS011;70517;48.192;16.278;2023-07-20T06:07:28;2.57;;;2.10;;
42132;SDS011;70517;48.192;16.278;2023-07-20T06:10:28;3.78;;;2.20;;
42132;SDS011;70517;48.192;16.278;2023-07-20T06:13:29;2.60;;;2.00;;
42132;SDS011;70517;48.192;16.278;2023-07-20T06:16:29;2.40;;;1.80;;
42132;SDS011;70517;48.192;16.278;2023-07-20T06:19:29;4.65;;;2.42;;
42132;SDS011;70517;48.192;16.278;2023-07-20T06:22:29;2.80;;;1.80;;
42132;SDS011;70517;48.192;16.278;2023-07-20T06:25:30;4.53;;;2.07;;
42132;SDS011;70517;48.192;16.278;2023-07-20T06:28:30;2.40;;;2.20;;
42132;SDS011;70517;48.192;16.278;2023-07-20T06:31:30;3.27;;;2.10;;
42132;SDS011;70517;48.192;16.278;2023-07-20T06:34:30;2.47;;;2.10;;
42132;SDS011;70517;48.192;16.278;2023-07-20T06:37:30;3.92;;;2.20;;
42132;SDS011;70517;48.192;16.278;2023-07-20T06:40:31;3.60;;;2.50;;
42132;SDS011;70517;48.192;16.278;2023-07-20T06:43:31;3.33;;;2.30;;
42132;SDS011;70517;48.192;16.278;2023-07-20T06:46:31;3.17;;;2.07;;
42132;SDS011;70517;48.192;16.278;2023-07-20T06:49:31;2.88;;;2.05;;
42132;SDS011;70517;48.192;16.278;2023-07-20T06:52:32;2.60;;;2.13;;
42132;SDS011;70517;48.192;16.278;2023-07-20T06:55:32;2.25;;;2.05;;
42132;SDS011;70517;48.192;16.278;2023-07-20T06:58:32;3.00;;;2.60;;
42132;SDS011;70517;48.192;16.278;2023-07-20T07:01:33;3.13;;;2.10;;
42132;SDS011;70517;48.192;16.278;2023-07-20T07:04:33;2.70;;;2.00;;
42132;SDS011;70517;48.192;16.278;2023-07-20T07:07:34;5.05;;;2.55;;
42132;SDS011;70517;48.192;16.278;2023-07-20T07:10:35;2.53;;;2.08;;
42132;SDS011;70517;48.192;16.278;2023-07-20T07:13:35;3.72;;;2.33;;
42132;SDS011;70517;48.192;16.278;2023-07-20T07:16:36;4.40;;;2.13;;
42132;SDS011;70517;48.192;16.278;2023-07-20T07:19:36;4.40;;;2.20;;
42132;SDS011;70517;48.192;16.278;2023-07-20T07:22:37;2.88;;;2.28;;
42132;SDS011;70517;48.192;16.278;2023-07-20T07:25:38;2.77;;;2.00;;
42132;SDS011;70517;48.192;16.278;2023-07-20T07:28:38;2.23;;;2.00;;
42132;SDS011;70517;48.192;16.278;2023-07-20T07:31:38;3.63;;;2.28;;
42132;SDS011;70517;48.192;16.278;2023-07-20T07:34:38;3.30;;;2.15;;
42132;SDS011;70517;48.192;16.278;2023-07-20T07:37:39;3.33;;;2.20;;
42132;SDS011;70517;48.192;16.278;2023-07-20T07:40:39;2.80;;;2.20;;
42132;SDS011;70517;48.192;16.278;2023-07-20T07:43:39;3.05;;;1.85;;
42132;SDS011;70517;48.192;16.278;2023-07-20T07:46:39;4.30;;;2.30;;
42132;SDS011;70517;48.192;16.278;2023-07-20T07:49:41;2.28;;;2.08;;
42132;SDS011;70517;48.192;16.278;2023-07-20T07:52:41;2.75;;;2.20;;
42132;SDS011;70517;48.192;16.278;2023-07-20T07:55:41;3.70;;;2.07;;
42132;SDS011;70517;48.192;16.278;2023-07-20T07:58:42;2.65;;;1.88;;
42132;SDS011;70517;48.192;16.278;2023-07-20T08:01:42;3.87;;;2.40;;
42132;SDS011;70517;48.192;16.278;2023-07-20T08:04:42;3.90;;;2.07;;
42132;SDS011;70517;48.192;16.278;2023-07-20T08:07:42;2.30;;;2.10;;
42132;SDS011;70517;48.192;16.278;2023-07-20T08:10:43;3.07;;;2.00;;
42132;SDS011;70517;48.192;16.278;2023-07-20T08:13:43;2.33;;;2.13;;
42132;SDS011;70517;48.192;16.278;2023-07-20T08:16:43;2.57;;;2.17;;
42132;SDS011;70517;48.192;16.278;2023-07-20T08:19:44;2.63;;;2.00;;
42132;SDS011;70517;48.192;16.278;2023-07-20T08:22:45;4.50;;;2.20;;
42132;SDS011;70517;48.192;16.278;2023-07-20T08:25:45;2.07;;;1.77;;
42132;SDS011;70517;48.192;16.278;2023-07-20T08:28:45;2.10;;;1.60;;
42132;SDS011;70517;48.192;16.278;2023-07-20T08:31:48;3.38;;;1.73;;
42132;SDS011;70517;48.192;16.278;2023-07-20T08:34:48;3.13;;;1.70;;
42132;SDS011;70517;48.192;16.278;2023-07-20T08:37:48;3.70;;;1.80;;
42132;SDS011;70517;48.192;16.278;2023-07-20T08:40:49;1.52;;;1.40;;
42132;SDS011;70517;48.192;16.278;2023-07-20T08:43:51;2.00;;;1.80;;
42132;SDS011;70517;48.192;16.278;2023-07-20T08:46:54;2.45;;;1.77;;
42132;SDS011;70517;48.192;16.278;2023-07-20T08:49:55;2.05;;;1.65;;
42132;SDS011;70517;48.192;16.278;2023-07-20T08:52:56;2.47;;;1.48;;
42132;SDS011;70517;48.192;16.278;2023-07-20T08:55:57;2.85;;;1.63;;
42132;SDS011;70517;48.192;16.278;2023-07-20T08:58:57;1.63;;;1.52;;
42132;SDS011;70517;48.192;16.278;2023-07-20T09:01:59;2.08;;;1.55;;
42132;SDS011;70517;48.192;16.278;2023-07-20T09:05:00;1.90;;;1.67;;
42132;SDS011;70517;48.192;16.278;2023-07-20T09:08:01;3.20;;;1.60;;
42132;SDS011;70517;48.192;16.278;2023-07-20T09:11:03;1.95;;;1.40;;
42132;SDS011;70517;48.192;16.278;2023-07-20T09:14:05;2.88;;;1.70;;
42132;SDS011;70517;48.192;16.278;2023-07-20T09:17:05;2.95;;;1.98;;
42132;SDS011;70517;48.192;16.278;2023-07-20T09:20:09;3.00;;;2.17;;
42132;SDS011;70517;48.192;16.278;2023-07-20T09:23:10;2.35;;;1.73;;
42132;SDS011;70517;48.192;16.278;2023-07-20T09:26:11;2.93;;;1.80;;
42132;SDS011;70517;48.192;16.278;2023-07-20T09:29:12;2.40;;;1.92;;
42132;SDS011;70517;48.192;16.278;2023-07-20T09:32:12;2.60;;;1.65;;
42132;SDS011;70517;48.192;16.278;2023-07-20T09:35:16;2.83;;;2.00;;
42132;SDS011;70517;48.192;16.278;2023-07-20T09:38:17;2.22;;;1.65;;
42132;SDS011;70517;48.192;16.278;2023-07-20T09:41:17;2.20;;;2.00;;
42132;SDS011;70517;48.192;16.278;2023-07-20T09:44:20;2.97;;;1.60;;
42132;SDS011;70517;48.192;16.278;2023-07-20T09:47:21;2.23;;;1.60;;
42132;SDS011;70517;48.192;16.278;2023-07-20T09:50:21;1.75;;;1.63;;
42132;SDS011;70517;48.192;16.278;2023-07-20T09:53:24;3.88;;;1.90;;
42132;SDS011;70517;48.192;16.278;2023-07-20T09:56:25;1.58;;;1.48;;
42132;SDS011;70517;48.192;16.278;2023-07-20T09:59:26;1.83;;;1.67;;
42132;SDS011;70517;48.192;16.278;2023-07-20T10:02:30;3.38;;;2.08;;
42132;SDS011;70517;48.192;16.278;2023-07-20T10:05:34;1.88;;;1.60;;
42132;SDS011;70517;48.192;16.278;2023-07-20T10:08:37;1.88;;;1.70;;
42132;SDS011;70517;48.192;16.278;2023-07-20T10:11:40;2.05;;;1.85;;
42132;SDS011;70517;48.192;16.278;2023-07-20T10:14:44;2.22;;;1.77;;
42132;SDS011;70517;48.192;16.278;2023-07-20T10:17:49;2.85;;;2.00;;
42132;SDS011;70517;48.192;16.278;2023-07-20T10:20:54;2.00;;;1.70;;
42132;SDS011;70517;48.192;16.278;2023-07-20T10:23:55;2.47;;;1.70;;
42132;SDS011;70517;48.192;16.278;2023-07-20T10:26:56;2.22;;;1.80;;
42132;SDS011;70517;48.192;16.278;2023-07-20T10:29:56;1.93;;;1.77;;
42132;SDS011;70517;48.192;16.278;2023-07-20T10:32:59;1.73;;;1.63;;
42132;SDS011;70517;48.192;16.278;2023-07-20T10:36:03;3.15;;;1.90;;
42132;SDS011;70517;48.192;16.278;2023-07-20T10:39:05;2.63;;;1.67;;
42132;SDS011;70517;48.192;16.278;2023-07-20T10:42:09;4.43;;;1.63;;
42132;SDS011;70517;48.192;16.278;2023-07-20T10:45:09;2.60;;;1.80;;
42132;SDS011;70517;48.192;16.278;2023-07-20T10:48:13;2.07;;;1.67;;
42132;SDS011;70517;48.192;16.278;2023-07-20T10:51:14;2.88;;;1.83;;
42132;SDS011;70517;48.192;16.278;2023-07-20T11:00:23;2.45;;;1.40;;
42132;SDS011;70517;48.192;16.278;2023-07-20T11:03:30;2.80;;;1.67;;
42132;SDS011;70517;48.192;16.278;2023-07-20T11:06:32;1.60;;;1.50;;
42132;SDS011;70517;48.192;16.278;2023-07-20T11:09:37;2.20;;;1.70;;
42132;SDS011;70517;48.192;16.278;2023-07-20T11:12:37;1.40;;;1.30;;
42132;SDS011;70517;48.192;16.278;2023-07-20T11:18:56;2.20;;;1.70;;
42132;SDS011;70517;48.192;16.278;2023-07-20T11:21:57;2.60;;;1.83;;
42132;SDS011;70517;48.192;16.278;2023-07-20T11:24:58;1.70;;;1.50;;
42132;SDS011;70517;48.192;16.278;2023-07-20T11:27:58;2.33;;;1.60;;
42132;SDS011;70517;48.192;16.278;2023-07-20T11:30:58;2.60;;;1.40;;
42132;SDS011;70517;48.192;16.278;2023-07-20T11:33:59;1.40;;;1.30;;
42132;SDS011;70517;48.192;16.278;2023-07-20T11:36:59;1.73;;;1.60;;
42132;SDS011;70517;48.192;16.278;2023-07-20T11:39:59;1.48;;;1.35;;
42132;SDS011;70517;48.192;16.278;2023-07-20T11:42:59;4.20;;;1.60;;
42132;SDS011;70517;48.192;16.278;2023-07-20T11:46:00;3.80;;;1.90;;
42132;SDS011;70517;48.192;16.278;2023-07-20T11:49:01;3.58;;;1.45;;
42132;SDS011;70517;48.192;16.278;2023-07-20T11:52:01;1.70;;;1.57;;
42132;SDS011;70517;48.192;16.278;2023-07-20T11:55:02;2.13;;;1.48;;
42132;SDS011;70517;48.192;16.278;2023-07-20T11:58:03;1.50;;;1.40;;
42132;SDS011;70517;48.192;16.278;2023-07-20T12:01:03;1.83;;;1.40;;
42132;SDS011;70517;48.192;16.278;2023-07-20T12:04:04;2.03;;;1.40;;
42132;SDS011;70517;48.192;16.278;2023-07-20T12:07:04;1.40;;;1.30;;
42132;SDS011;70517;48.192;16.278;2023-07-20T12:10:08;2.13;;;1.45;;
42132;SDS011;70517;48.192;16.278;2023-07-20T12:13:09;3.03;;;1.38;;
42132;SDS011;70517;48.192;16.278;2023-07-20T12:16:13;2.00;;;1.40;;
42132;SDS011;70517;48.192;16.278;2023-07-20T12:19:14;2.33;;;1.17;;
42132;SDS011;70517;48.192;16.278;2023-07-20T12:22:14;3.00;;;1.40;;
42132;SDS011;70517;48.192;16.278;2023-07-20T12:25:15;1.20;;;1.10;;
42132;SDS011;70517;48.192;16.278;2023-07-20T12:28:16;1.42;;;1.33;;
42132;SDS011;70517;48.192;16.278;2023-07-20T12:31:18;2.20;;;1.40;;
42132;SDS011;70517;48.192;16.278;2023-07-20T12:34:18;1.73;;;1.30;;
42132;SDS011;70517;48.192;16.278;2023-07-20T12:37:18;1.13;;;1.00;;
42132;SDS011;70517;48.192;16.278;2023-07-20T12:40:19;4.57;;;1.40;;
42132;SDS011;70517;48.192;16.278;2023-07-20T12:43:19;1.50;;;1.40;;
42132;SDS011;70517;48.192;16.278;2023-07-20T12:46:19;2.47;;;1.10;;
42132;SDS011;70517;48.192;16.278;2023-07-20T12:49:19;1.90;;;1.40;;
42132;SDS011;70517;48.192;16.278;2023-07-20T12:52:20;1.77;;;1.50;;
42132;SDS011;70517;48.192;16.278;2023-07-20T12:55:20;0.90;;;0.90;;
42132;SDS011;70517;48.192;16.278;2023-07-20T12:58:20;1.27;;;1.17;;
42132;SDS011;70517;48.192;16.278;2023-07-20T13:01:20;1.77;;;1.40;;
42132;SDS011;70517;48.192;16.278;2023-07-20T13:04:21;2.83;;;1.63;;
42132;SDS011;70517;48.192;16.278;2023-07-20T13:07:28;2.72;;;1.20;;
42132;SDS011;70517;48.192;16.278;2023-07-20T13:10:29;1.90;;;1.20;;
42132;SDS011;70517;48.192;16.278;2023-07-20T13:13:29;2.30;;;1.33;;
42132;SDS011;70517;48.192;16.278;2023-07-20T13:16:29;1.70;;;1.30;;
42132;SDS011;70517;48.192;16.278;2023-07-20T13:19:30;1.70;;;1.10;;
42132;SDS011;70517;48.192;16.278;2023-07-20T13:22:30;1.27;;;1.10;;
42132;SDS011;70517;48.192;16.278;2023-07-20T13:25:30;3.25;;;1.35;;
42132;SDS011;70517;48.192;16.278;2023-07-20T13:28:31;2.08;;;1.23;;
42132;SDS011;70517;48.192;16.278;2023-07-20T13:31:31;2.60;;;1.80;;
42132;SDS011;70517;48.192;16.278;2023-07-20T13:34:31;2.63;;;1.50;;
42132;SDS011;70517;48.192;16.278;2023-07-20T13:37:32;1.47;;;1.23;;
42132;SDS011;70517;48.192;16.278;2023-07-20T13:40:33;1.70;;;1.20;;
42132;SDS011;70517;48.192;16.278;2023-07-20T13:43:33;1.73;;;1.33;;
42132;SDS011;70517;48.192;16.278;2023-07-20T13:46:33;1.47;;;1.37;;
42132;SDS011;70517;48.192;16.278;2023-07-20T13:49:34;1.65;;;1.50;;
42132;SDS011;70517;48.192;16.278;2023-07-20T13:52:34;1.60;;;1.30;;
42132;SDS011;70517;48.192;16.278;2023-07-20T13:55:35;1.50;;;1.00;;
42132;SDS011;70517;48.192;16.278;2023-07-20T13:58:37;1.42;;;1.20;;
42132;SDS011;70517;48.192;16.278;2023-07-20T14:01:37;1.43;;;1.33;;
42132;SDS011;70517;48.192;16.278;2023-07-20T14:04:37;1.30;;;1.20;;
42132;SDS011;70517;48.192;16.278;2023-07-20T14:07:37;1.83;;;1.63;;
42132;SDS011;70517;48.192;16.278;2023-07-20T14:10:38;2.03;;;1.60;;
42132;SDS011;70517;48.192;16.278;2023-07-20T14:13:38;2.13;;;1.40;;
42132;SDS011;70517;48.192;16.278;2023-07-20T14:16:38;1.45;;;1.20;;
42132;SDS011;70517;48.192;16.278;2023-07-20T14:19:39;1.87;;;1.40;;
42132;SDS011;70517;48.192;16.278;2023-07-20T14:22:39;1.57;;;1.17;;
42132;SDS011;70517;48.192;16.278;2023-07-20T14:25:39;1.60;;;1.30;;
42132;SDS011;70517;48.192;16.278;2023-07-20T14:28:40;1.52;;;1.25;;
42132;SDS011;70517;48.192;16.278;2023-07-20T14:31:40;1.20;;;1.10;;
42132;SDS011;70517;48.192;16.278;2023-07-20T14:34:40;1.77;;;1.13;;
42132;SDS011;70517;48.192;16.278;2023-07-20T14:37:41;1.50;;;1.40;;
42132;SDS011;70517;48.192;16.278;2023-07-20T14:40:41;1.30;;;1.20;;
42132;SDS011;70517;48.192;16.278;2023-07-20T14:43:41;1.80;;;1.30;;
42132;SDS011;70517;48.192;16.278;2023-07-20T14:46:41;1.50;;;1.07;;
42132;SDS011;70517;48.192;16.278;2023-07-20T14:49:42;1.30;;;1.20;;
42132;SDS011;70517;48.192;16.278;2023-07-20T14:52:42;2.23;;;1.20;;
42132;SDS011;70517;48.192;16.278;2023-07-20T14:55:42;1.90;;;1.30;;
42132;SDS011;70517;48.192;16.278;2023-07-20T14:58:44;3.30;;;1.40;;
42132;SDS011;70517;48.192;16.278;2023-07-20T15:01:44;2.20;;;1.40;;
42132;SDS011;70517;48.192;16.278;2023-07-20T15:04:48;1.40;;;1.30;;
42132;SDS011;70517;48.192;16.278;2023-07-20T15:07:49;1.60;;;1.50;;
42132;SDS011;70517;48.192;16.278;2023-07-20T15:10:49;1.30;;;1.20;;
42132;SDS011;70517;48.192;16.278;2023-07-20T15:13:50;1.53;;;1.23;;
42132;SDS011;70517;48.192;16.278;2023-07-20T15:16:50;1.50;;;1.40;;
42132;SDS011;70517;48.192;16.278;2023-07-20T15:19:50;2.35;;;1.35;;
42132;SDS011;70517;48.192;16.278;2023-07-20T15:22:51;1.77;;;1.20;;
42132;SDS011;70517;48.192;16.278;2023-07-20T15:25:51;1.50;;;1.40;;
42132;SDS011;70517;48.192;16.278;2023-07-20T15:28:51;1.40;;;1.30;;
42132;SDS011;70517;48.192;16.278;2023-07-20T15:31:51;1.57;;;1.10;;
42132;SDS011;70517;48.192;16.278;2023-07-20T15:34:51;1.43;;;1.13;;
42132;SDS011;70517;48.192;16.278;2023-07-20T15:37:52;1.17;;;1.07;;
42132;SDS011;70517;48.192;16.278;2023-07-20T15:40:52;0.97;;;0.93;;
42132;SDS011;70517;48.192;16.278;2023-07-20T15:43:54;0.95;;;0.95;;
42132;SDS011;70517;48.192;16.278;2023-07-20T15:46:54;2.97;;;0.90;;
42132;SDS011;70517;48.192;16.278;2023-07-20T15:49:54;1.58;;;1.00;;
42132;SDS011;70517;48.192;16.278;2023-07-20T15:52:55;2.13;;;0.93;;
42132;SDS011;70517;48.192;16.278;2023-07-20T15:55:55;3.63;;;1.13;;
42132;SDS011;70517;48.192;16.278;2023-07-20T15:58:56;1.17;;;0.90;;
42132;SDS011;70517;48.192;16.278;2023-07-20T16:01:56;1.20;;;0.90;;
42132;SDS011;70517;48.192;16.278;2023-07-20T16:04:56;1.77;;;0.90;;
42132;SDS011;70517;48.192;16.278;2023-07-20T16:07:56;1.20;;;1.10;;
42132;SDS011;70517;48.192;16.278;2023-07-20T16:10:57;1.97;;;1.77;;
42132;SDS011;70517;48.192;16.278;2023-07-20T16:13:57;2.05;;;1.80;;
42132;SDS011;70517;48.192;16.278;2023-07-20T16:16:57;1.80;;;1.50;;
42132;SDS011;70517;48.192;16.278;2023-07-20T16:19:58;4.03;;;1.40;;
42132;SDS011;70517;48.192;16.278;2023-07-20T16:22:58;4.47;;;1.30;;
42132;SDS011;70517;48.192;16.278;2023-07-20T16:25:59;3.20;;;1.73;;
42132;SDS011;70517;48.192;16.278;2023-07-20T16:28:59;2.67;;;1.70;;
42132;SDS011;70517;48.192;16.278;2023-07-20T16:32:01;2.00;;;1.50;;
42132;SDS011;70517;48.192;16.278;2023-07-20T16:35:01;2.03;;;1.17;;
42132;SDS011;70517;48.192;16.278;2023-07-20T16:38:02;2.65;;;1.00;;
42132;SDS011;70517;48.192;16.278;2023-07-20T16:41:03;1.63;;;1.00;;
42132;SDS011;70517;48.192;16.278;2023-07-20T16:44:04;1.40;;;1.30;;
42132;SDS011;70517;48.192;16.278;2023-07-20T16:47:04;2.05;;;1.60;;
42132;SDS011;70517;48.192;16.278;2023-07-20T16:50:05;1.35;;;1.05;;
42132;SDS011;70517;48.192;16.278;2023-07-20T16:53:05;2.20;;;1.20;;
42132;SDS011;70517;48.192;16.278;2023-07-20T16:56:05;1.47;;;1.13;;
42132;SDS011;70517;48.192;16.278;2023-07-20T16:59:06;1.80;;;1.08;;
42132;SDS011;70517;48.192;16.278;2023-07-20T17:02:06;1.50;;;1.07;;
42132;SDS011;70517;48.192;16.278;2023-07-20T17:05:06;1.90;;;0.87;;
42132;SDS011;70517;48.192;16.278;2023-07-20T17:08:10;2.10;;;1.75;;
42132;SDS011;70517;48.192;16.278;2023-07-20T17:11:11;3.08;;;2.50;;
42132;SDS011;70517;48.192;16.278;2023-07-20T17:14:11;2.30;;;1.60;;
42132;SDS011;70517;48.192;16.278;2023-07-20T17:17:12;1.55;;;1.45;;
42132;SDS011;70517;48.192;16.278;2023-07-20T17:20:13;1.70;;;1.20;;
42132;SDS011;70517;48.192;16.278;2023-07-20T17:23:13;1.20;;;1.00;;
42132;SDS011;70517;48.192;16.278;2023-07-20T17:26:14;2.28;;;1.15;;
42132;SDS011;70517;48.192;16.278;2023-07-20T17:29:15;1.23;;;1.03;;
42132;SDS011;70517;48.192;16.278;2023-07-20T17:32:15;2.57;;;1.00;;
42132;SDS011;70517;48.192;16.278;2023-07-20T17:35:15;1.33;;;0.90;;
42132;SDS011;70517;48.192;16.278;2023-07-20T17:38:15;1.50;;;1.10;;
42132;SDS011;70517;48.192;16.278;2023-07-20T17:41:16;2.53;;;1.10;;
42132;SDS011;70517;48.192;16.278;2023-07-20T17:44:16;1.10;;;0.95;;
42132;SDS011;70517;48.192;16.278;2023-07-20T17:47:17;1.08;;;0.98;;
42132;SDS011;70517;48.192;16.278;2023-07-20T17:50:17;1.10;;;0.90;;
42132;SDS011;70517;48.192;16.278;2023-07-20T17:53:17;1.38;;;1.27;;
42132;SDS011;70517;48.192;16.278;2023-07-20T17:56:18;2.50;;;1.67;;
42132;SDS011;70517;48.192;16.278;2023-07-20T17:59:18;2.37;;;1.40;;
42132;SDS011;70517;48.192;16.278;2023-07-20T18:02:19;2.85;;;1.20;;
42132;SDS011;70517;48.192;16.278;2023-07-20T18:05:19;1.55;;;1.10;;
42132;SDS011;70517;48.192;16.278;2023-07-20T18:08:20;3.47;;;1.23;;
42132;SDS011;70517;48.192;16.278;2023-07-20T18:11:20;0.95;;;0.90;;
42132;SDS011;70517;48.192;16.278;2023-07-20T18:14:20;2.85;;;1.25;;
42132;SDS011;70517;48.192;16.278;2023-07-20T18:17:21;1.60;;;1.00;;
42132;SDS011;70517;48.192;16.278;2023-07-20T18:20:21;2.47;;;1.13;;
42132;SDS011;70517;48.192;16.278;2023-07-20T18:23:21;3.50;;;1.50;;
42132;SDS011;70517;48.192;16.278;2023-07-20T18:26:21;2.10;;;1.07;;
42132;SDS011;70517;48.192;16.278;2023-07-20T18:29:22;2.87;;;1.07;;
42132;SDS011;70517;48.192;16.278;2023-07-20T18:32:22;1.23;;;1.00;;
42132;SDS011;70517;48.192;16.278;2023-07-20T18:35:22;4.55;;;1.30;;
42132;SDS011;70517;48.192;16.278;2023-07-20T18:38:23;1.40;;;1.10;;
42132;SDS011;70517;48.192;16.278;2023-07-20T18:41:23;1.40;;;1.27;;